Terminal Aerodrome Forecast
Issued by NWS

Home | Current Version | Previous Version | Text Only | Print | Product List | Glossary On
Versions: 1 2 3 4 5 6 7 8 9 10 11 12 13 14 15
000
FTUS43 KSGF 180520
TAFJLN
TAF
KJLN 180520Z 1806/1906 21020G28KT P6SM BKN250
     FM181200 27020G30KT P6SM OVC015
     FM181400 32025G32KT P6SM OVC015
     FM182200 32020G28KT P6SM SKC
     FM190000 31010KT P6SM SKC=

USA.gov is the U.S. government's official web portal to all federal, state and local government web resources and services.